createdAt,value
2023-01-28T00:01:27.424Z,9.13
2023-01-28T00:03:52.328Z,9.40
2023-01-28T00:06:16.778Z,9.80
2023-01-28T00:08:40.266Z,9.83
2023-01-28T00:11:05.801Z,10.10
2023-01-28T00:13:29.473Z,10.80
2023-01-28T00:15:57.375Z,11.23
2023-01-28T00:18:22.432Z,10.15
2023-01-28T00:20:45.679Z,10.75
2023-01-28T00:23:09.083Z,11.77
2023-01-28T00:25:32.778Z,11.20
2023-01-28T00:27:56.031Z,10.70
2023-01-28T00:30:20.781Z,10.97
2023-01-28T00:32:44.611Z,10.80
2023-01-28T00:35:11.583Z,11.27
2023-01-28T00:37:38.155Z,11.07
2023-01-28T00:40:01.467Z,10.98
2023-01-28T00:42:25.241Z,11.40
2023-01-28T00:44:48.607Z,10.95
2023-01-28T00:47:11.888Z,11.00
2023-01-28T00:49:35.250Z,11.50
2023-01-28T00:52:00.014Z,10.90
2023-01-28T00:54:23.267Z,12.15
2023-01-28T00:56:46.526Z,12.97
2023-01-28T00:59:09.822Z,12.53
2023-01-28T01:01:33.217Z,12.68
2023-01-28T01:04:02.910Z,12.23
2023-01-28T01:06:27.248Z,12.93
2023-01-28T01:08:52.338Z,13.40
2023-01-28T01:11:15.626Z,12.77
2023-01-28T01:13:39.329Z,13.00
2023-01-28T01:16:04.840Z,13.45
2023-01-28T01:18:28.092Z,13.63
2023-01-28T01:20:53.085Z,12.77
2023-01-28T01:23:16.343Z,13.43
2023-01-28T01:25:41.431Z,13.70
2023-01-28T01:28:05.024Z,13.95
2023-01-28T01:30:28.723Z,13.47
2023-01-28T01:32:52.751Z,13.43
2023-01-28T01:35:16.536Z,13.70
2023-01-28T01:37:40.055Z,13.53
2023-01-28T01:40:04.931Z,13.05
2023-01-28T01:42:29.719Z,13.30
2023-01-28T01:45:02.407Z,13.63
2023-01-28T01:47:31.056Z,14.10
2023-01-28T01:49:54.935Z,14.23
2023-01-28T01:52:24.024Z,14.97
2023-01-28T01:54:54.045Z,17.17
2023-01-28T01:57:24.284Z,17.93
2023-01-28T01:59:49.426Z,18.37
2023-01-28T02:02:13.928Z,16.80
2023-01-28T02:04:41.117Z,16.83
2023-01-28T02:07:05.149Z,16.65
2023-01-28T02:09:30.860Z,16.83
2023-01-28T02:11:57.003Z,16.27
2023-01-28T02:14:30.510Z,14.57
2023-01-28T02:16:56.345Z,14.13
2023-01-28T02:19:23.650Z,14.73
2023-01-28T02:22:10.311Z,12.43
2023-01-28T02:25:09.044Z,12.13
2023-01-28T02:27:39.162Z,10.50
2023-01-28T02:30:12.127Z,9.73
2023-01-28T02:32:41.823Z,8.27
2023-01-28T02:35:14.164Z,8.43
2023-01-28T02:37:43.178Z,8.40
2023-01-28T02:40:13.675Z,8.17
2023-01-28T02:42:39.937Z,7.63
2023-01-28T02:45:05.624Z,7.40
2023-01-28T02:47:46.780Z,7.60
2023-01-28T02:50:14.598Z,7.87
2023-01-28T02:53:09.612Z,7.03
2023-01-28T02:55:40.312Z,7.60
2023-01-28T02:58:11.283Z,8.20
2023-01-28T03:00:48.203Z,8.30
2023-01-28T03:03:19.953Z,8.87
2023-01-28T03:06:03.688Z,9.63
2023-01-28T03:08:44.804Z,9.97
2023-01-28T03:11:25.568Z,10.50
2023-01-28T03:14:07.159Z,10.17
2023-01-28T03:16:52.374Z,9.57
2023-01-28T03:19:33.661Z,9.13
2023-01-28T03:22:16.664Z,9.33
2023-01-28T03:25:02.817Z,9.47
2023-01-28T03:27:52.095Z,8.97
2023-01-28T03:30:39.930Z,10.53
2023-01-28T03:33:27.904Z,10.17
2023-01-28T03:36:08.802Z,10.70
2023-01-28T03:38:34.071Z,11.40
2023-01-28T03:41:00.778Z,11.17
2023-01-28T03:43:25.108Z,11.17
2023-01-28T03:45:51.385Z,10.87
2023-01-28T03:48:16.304Z,9.70
2023-01-28T03:50:39.787Z,9.80
2023-01-28T03:53:13.496Z,8.80
2023-01-28T03:55:42.156Z,9.63
2023-01-28T03:58:06.103Z,9.33
2023-01-28T04:00:32.746Z,9.63
2023-01-28T04:02:56.184Z,9.70
2023-01-28T04:05:22.668Z,10.37
2023-01-28T04:07:46.523Z,10.20
2023-01-28T04:10:31.888Z,10.50
2023-01-28T04:13:06.410Z,10.93
2023-01-28T04:15:31.009Z,10.70
2023-01-28T04:17:54.641Z,10.27
2023-01-28T04:20:24.187Z,10.60
2023-01-28T04:22:47.454Z,10.47
2023-01-28T04:25:12.637Z,10.17
2023-01-28T04:27:36.176Z,10.83
2023-01-28T04:30:10.746Z,9.77
2023-01-28T04:32:37.348Z,10.37
2023-01-28T04:35:28.360Z,8.60
2023-01-28T04:37:58.616Z,9.23
2023-01-28T04:40:27.308Z,10.03
2023-01-28T04:42:59.452Z,8.90
2023-01-28T04:45:41.772Z,9.60
2023-01-28T04:48:18.626Z,11.23
2023-01-28T04:51:01.029Z,10.37
2023-01-28T04:53:34.245Z,10.23
2023-01-28T04:56:03.701Z,10.30
2023-01-28T04:58:29.352Z,11.63
2023-01-28T05:00:57.960Z,12.50
2023-01-28T05:03:21.865Z,11.80
2023-01-28T05:05:45.238Z,14.33
2023-01-28T05:08:39.157Z,16.83
2023-01-28T05:11:02.694Z,16.93
2023-01-28T05:13:26.179Z,16.63
2023-01-28T05:15:53.980Z,15.93
2023-01-28T05:18:17.680Z,16.03
2023-01-28T05:20:47.233Z,15.27
2023-01-28T05:23:10.707Z,15.30
2023-01-28T05:25:47.283Z,15.80
2023-01-28T05:28:10.594Z,15.37
2023-01-28T05:30:33.905Z,15.10
2023-01-28T05:32:58.107Z,15.63
2023-01-28T05:35:21.731Z,17.53
2023-01-28T05:37:44.998Z,19.97
2023-01-28T05:40:11.250Z,18.10
2023-01-28T05:42:35.882Z,16.50
2023-01-28T05:45:16.837Z,16.93
2023-01-28T05:47:58.448Z,18.13
2023-01-28T05:51:00.164Z,15.90
2023-01-28T05:53:30.070Z,17.70
2023-01-28T05:55:54.808Z,16.70
2023-01-28T05:58:20.360Z,17.30
2023-01-28T06:00:43.760Z,17.27
2023-01-28T06:03:07.231Z,16.27
2023-01-28T06:05:32.241Z,18.27
2023-01-28T06:07:57.496Z,18.97
2023-01-28T06:10:20.864Z,18.37
2023-01-28T06:12:44.659Z,18.50
2023-01-28T06:15:27.928Z,18.83
2023-01-28T06:18:17.140Z,17.80
2023-01-28T06:20:40.762Z,17.83
2023-01-28T06:23:04.006Z,18.67
2023-01-28T06:25:27.303Z,16.67
2023-01-28T06:27:51.322Z,17.27
2023-01-28T06:30:15.501Z,16.20
2023-01-28T06:32:40.835Z,16.33
2023-01-28T06:35:04.422Z,15.73
2023-01-28T06:37:27.825Z,19.30
2023-01-28T06:39:51.609Z,18.77
2023-01-28T06:42:14.819Z,18.53
2023-01-28T06:44:38.306Z,19.77
2023-01-28T06:47:01.477Z,18.90
2023-01-28T06:49:26.157Z,16.87
2023-01-28T06:51:49.744Z,17.30
2023-01-28T06:54:13.001Z,23.63
2023-01-28T06:56:36.313Z,21.90
2023-01-28T06:58:59.573Z,16.93
2023-01-28T07:01:22.927Z,17.10
2023-01-28T07:03:46.303Z,18.13
2023-01-28T07:06:11.051Z,19.30
2023-01-28T07:08:34.384Z,18.70
2023-01-28T07:10:57.799Z,19.10
2023-01-28T07:13:21.297Z,18.37
2023-01-28T07:15:44.719Z,17.53
2023-01-28T07:18:07.935Z,17.53
2023-01-28T07:20:32.452Z,18.53
2023-01-28T07:22:57.287Z,19.60
2023-01-28T07:25:20.872Z,19.57
2023-01-28T07:27:49.379Z,20.83
2023-01-28T07:30:14.420Z,22.00
2023-01-28T07:32:38.016Z,23.77
2023-01-28T07:35:01.350Z,23.97
2023-01-28T07:37:24.703Z,26.10
2023-01-28T07:39:49.589Z,22.93
2023-01-28T07:42:12.877Z,22.73
2023-01-28T07:44:42.702Z,24.03
2023-01-28T07:47:07.301Z,24.70
2023-01-28T07:49:30.904Z,20.47
2023-01-28T07:51:54.635Z,20.93
2023-01-28T07:54:18.088Z,24.50
2023-01-28T07:56:42.750Z,27.67
2023-01-28T07:59:06.167Z,28.23
2023-01-28T08:01:29.659Z,31.00
2023-01-28T08:03:53.158Z,27.63
2023-01-28T08:06:16.470Z,24.43
2023-01-28T08:08:39.775Z,25.83
2023-01-28T08:11:09.511Z,26.83
2023-01-28T08:13:34.207Z,26.37
2023-01-28T08:15:57.636Z,26.13
2023-01-28T08:18:20.985Z,25.97
2023-01-28T08:20:47.249Z,27.07
2023-01-28T08:23:13.498Z,26.97
2023-01-28T08:25:37.704Z,25.37
2023-01-28T08:28:01.022Z,37.30
2023-01-28T08:30:25.752Z,28.17
2023-01-28T08:32:49.210Z,26.60
2023-01-28T08:35:12.431Z,25.53
2023-01-28T08:37:35.736Z,25.80
2023-01-28T08:39:58.993Z,25.33
2023-01-28T08:42:22.207Z,24.70
2023-01-28T08:44:45.620Z,24.43
2023-01-28T08:47:10.281Z,23.17
2023-01-28T08:49:33.619Z,24.10
2023-01-28T08:51:56.886Z,22.00
2023-01-28T08:54:20.153Z,22.40
2023-01-28T08:56:44.856Z,21.00
2023-01-28T08:59:08.281Z,21.07
2023-01-28T09:01:31.560Z,21.90
2023-01-28T09:03:56.263Z,21.97
2023-01-28T09:06:19.587Z,21.73
2023-01-28T09:08:42.880Z,20.80
2023-01-28T09:11:06.358Z,21.73
2023-01-28T09:13:30.093Z,20.13
2023-01-28T09:15:53.854Z,19.33
2023-01-28T09:18:17.107Z,18.57
2023-01-28T09:20:42.633Z,20.00
2023-01-28T09:23:06.379Z,19.23
2023-01-28T09:25:30.117Z,19.73
2023-01-28T09:27:53.490Z,18.80
2023-01-28T09:30:17.741Z,19.60
2023-01-28T09:32:41.268Z,18.33
2023-01-28T09:35:05.060Z,25.50
2023-01-28T09:37:29.926Z,20.00
2023-01-28T09:39:53.495Z,22.13
2023-01-28T09:42:33.987Z,20.73
2023-01-28T09:45:07.433Z,20.30
2023-01-28T09:47:37.214Z,20.53
2023-01-28T09:50:04.414Z,21.03
2023-01-28T09:52:32.173Z,20.07
2023-01-28T09:55:02.135Z,20.90
2023-01-28T09:57:28.226Z,19.47
2023-01-28T09:59:51.806Z,19.87
2023-01-28T10:02:32.379Z,20.40
2023-01-28T10:05:07.056Z,21.43
2023-01-28T10:07:41.135Z,22.97
2023-01-28T10:10:13.687Z,24.70
2023-01-28T10:13:17.256Z,25.40
2023-01-28T10:15:59.418Z,26.33
2023-01-28T10:18:34.617Z,28.03
2023-01-28T10:21:08.315Z,28.77
2023-01-28T10:23:45.453Z,29.37
2023-01-28T10:26:23.930Z,28.50
2023-01-28T10:28:54.025Z,26.60
2023-01-28T10:31:17.324Z,24.97
2023-01-28T10:33:40.664Z,25.77
2023-01-28T10:36:05.629Z,24.80
2023-01-28T10:38:31.879Z,22.03
2023-01-28T10:41:01.650Z,23.07
2023-01-28T10:43:28.128Z,20.43
2023-01-28T10:45:59.843Z,20.97
2023-01-28T10:48:26.499Z,19.63
2023-01-28T10:50:57.004Z,20.47
2023-01-28T10:53:20.878Z,20.83
2023-01-28T10:55:52.503Z,22.93
2023-01-28T10:58:21.238Z,21.27
2023-01-28T11:00:44.732Z,22.03
2023-01-28T11:03:18.372Z,23.03
2023-01-28T11:05:52.910Z,23.67
2023-01-28T11:08:18.075Z,21.50
2023-01-28T11:10:42.636Z,22.23
2023-01-28T11:13:17.833Z,22.97
2023-01-28T11:15:48.804Z,24.90
2023-01-28T11:18:20.373Z,22.83
2023-01-28T11:20:51.709Z,23.63
2023-01-28T11:23:23.820Z,22.83
2023-01-28T11:25:47.110Z,21.43
2023-01-28T11:28:20.577Z,21.43
2023-01-28T11:30:44.157Z,19.33
2023-01-28T11:33:17.310Z,20.50
2023-01-28T11:35:40.636Z,20.23
2023-01-28T11:38:04.020Z,20.13
2023-01-28T11:40:28.077Z,20.57
2023-01-28T11:42:53.419Z,20.23
2023-01-28T11:45:21.799Z,20.63
2023-01-28T11:48:04.558Z,20.43
2023-01-28T11:50:39.753Z,21.70
2023-01-28T11:53:21.630Z,20.60
2023-01-28T11:56:15.059Z,20.03
2023-01-28T11:58:50.036Z,22.47
2023-01-28T12:01:23.452Z,22.43
2023-01-28T12:04:14.391Z,22.33
2023-01-28T12:06:58.339Z,21.10
2023-01-28T12:09:32.021Z,20.57
2023-01-28T12:12:13.479Z,21.07
2023-01-28T12:14:55.977Z,21.37
2023-01-28T12:17:34.263Z,21.00
2023-01-28T12:20:09.791Z,22.43
2023-01-28T12:22:58.412Z,23.27
2023-01-28T12:25:37.813Z,21.37
2023-01-28T12:28:10.620Z,21.97
2023-01-28T12:30:55.705Z,21.63
2023-01-28T12:33:49.312Z,22.10
2023-01-28T12:36:29.772Z,22.37
2023-01-28T12:39:06.069Z,25.07
2023-01-28T12:41:36.123Z,30.13
2023-01-28T12:44:03.930Z,28.97
2023-01-28T12:46:38.359Z,26.57
2023-01-28T12:49:08.084Z,26.47
2023-01-28T12:51:40.897Z,23.70
2023-01-28T12:54:13.789Z,24.83
2023-01-28T12:56:42.151Z,26.50
2023-01-28T12:59:12.676Z,25.93
2023-01-28T13:01:43.890Z,24.53
2023-01-28T13:04:15.448Z,25.77
2023-01-28T13:06:44.555Z,25.17
2023-01-28T13:09:18.994Z,25.03
2023-01-28T13:11:42.837Z,23.30
2023-01-28T13:14:06.925Z,24.10
2023-01-28T13:16:37.273Z,21.87
2023-01-28T13:19:23.514Z,23.40
2023-01-28T13:21:49.966Z,23.73
2023-01-28T13:24:32.964Z,23.93
2023-01-28T13:26:57.575Z,24.57
2023-01-28T13:29:33.099Z,25.57
2023-01-28T13:31:59.929Z,24.73
2023-01-28T13:34:37.678Z,27.13
2023-01-28T13:37:06.119Z,27.70
2023-01-28T13:39:31.260Z,27.10
2023-01-28T13:41:57.495Z,27.13
2023-01-28T13:44:28.691Z,27.13
2023-01-28T13:46:52.431Z,28.93
2023-01-28T13:49:23.065Z,31.07
2023-01-28T13:51:59.820Z,30.23
2023-01-28T13:54:24.398Z,28.17
2023-01-28T13:57:10.394Z,27.43
2023-01-28T13:59:49.329Z,26.13
2023-01-28T14:02:49.843Z,25.57
2023-01-28T14:05:53.784Z,28.53
2023-01-28T14:08:59.113Z,29.40
2023-01-28T14:12:06.932Z,29.70
2023-01-28T14:15:07.535Z,29.07
2023-01-28T14:17:43.420Z,30.40
2023-01-28T14:20:16.525Z,30.03
2023-01-28T14:22:43.339Z,31.87
2023-01-28T14:25:14.523Z,31.27
2023-01-28T14:27:44.757Z,30.10
2023-01-28T14:30:19.196Z,29.93
2023-01-28T14:32:47.868Z,29.60
2023-01-28T14:35:18.192Z,32.70
2023-01-28T14:37:42.722Z,30.77
2023-01-28T14:40:14.048Z,32.60
2023-01-28T14:42:41.884Z,32.57
2023-01-28T14:45:23.845Z,32.10
2023-01-28T14:48:12.475Z,31.93
2023-01-28T14:51:00.460Z,32.60
2023-01-28T14:53:54.431Z,30.37
2023-01-28T14:56:33.458Z,31.10
2023-01-28T14:59:04.217Z,32.60
2023-01-28T15:01:29.653Z,32.40
2023-01-28T15:03:54.174Z,33.57
2023-01-28T15:06:21.568Z,32.60
2023-01-28T15:08:45.076Z,33.83
2023-01-28T15:11:11.520Z,31.77
2023-01-28T15:13:42.067Z,32.17
2023-01-28T15:16:08.370Z,32.07
2023-01-28T15:18:36.373Z,32.00
2023-01-28T15:21:00.851Z,31.57
2023-01-28T15:23:38.075Z,33.43
2023-01-28T15:26:05.904Z,30.60
2023-01-28T15:28:32.136Z,31.73
2023-01-28T15:30:57.005Z,32.23
2023-01-28T15:33:23.490Z,31.43
2023-01-28T15:35:50.515Z,32.37
2023-01-28T15:38:13.872Z,31.80
2023-01-28T15:40:44.437Z,33.57
2023-01-28T15:43:07.944Z,33.70
2023-01-28T15:45:34.423Z,33.63
2023-01-28T15:48:08.907Z,35.00
2023-01-28T15:50:32.334Z,36.73
2023-01-28T15:52:56.310Z,35.00
2023-01-28T15:55:41.339Z,35.33
2023-01-28T15:58:21.483Z,35.43
2023-01-28T16:00:44.871Z,35.70
2023-01-28T16:03:11.414Z,34.90
2023-01-28T16:05:38.692Z,35.73
2023-01-28T16:08:08.493Z,33.77
2023-01-28T16:10:32.510Z,33.63
2023-01-28T16:13:05.233Z,37.20
2023-01-28T16:15:28.670Z,32.80
2023-01-28T16:17:53.295Z,37.00
2023-01-28T16:20:24.199Z,34.50
2023-01-28T16:22:49.677Z,32.27
2023-01-28T16:25:30.084Z,36.00
2023-01-28T16:27:53.630Z,35.70
2023-01-28T16:30:18.415Z,33.90
2023-01-28T16:32:42.573Z,35.30
2023-01-28T16:35:15.765Z,38.63
2023-01-28T16:37:41.792Z,37.23
2023-01-28T16:40:07.360Z,36.70
2023-01-28T16:42:32.740Z,37.20
2023-01-28T16:44:56.092Z,36.53
2023-01-28T16:47:19.479Z,37.17
2023-01-28T16:49:42.802Z,34.93
2023-01-28T16:52:07.250Z,37.97
2023-01-28T16:54:32.500Z,35.40
2023-01-28T16:56:57.161Z,36.03
2023-01-28T16:59:20.612Z,37.87
2023-01-28T17:01:44.433Z,38.50
2023-01-28T17:04:12.068Z,37.57
2023-01-28T17:06:37.732Z,38.70
2023-01-28T17:09:00.956Z,39.73
2023-01-28T17:11:29.779Z,37.40
2023-01-28T17:13:52.981Z,36.40
2023-01-28T17:16:16.250Z,36.47
2023-01-28T17:18:40.000Z,38.07
2023-01-28T17:21:04.496Z,35.33
2023-01-28T17:23:27.817Z,36.90
2023-01-28T17:25:51.703Z,37.50
2023-01-28T17:28:16.818Z,35.87
2023-01-28T17:30:41.708Z,37.87
2023-01-28T17:33:05.704Z,38.37
2023-01-28T17:35:30.866Z,36.93
2023-01-28T17:37:54.464Z,37.70
2023-01-28T17:40:18.777Z,37.27
2023-01-28T17:42:42.052Z,38.20
2023-01-28T17:45:07.738Z,35.63
2023-01-28T17:47:31.825Z,38.77
2023-01-28T17:49:56.853Z,36.77
2023-01-28T17:52:20.209Z,37.23
2023-01-28T17:54:43.488Z,38.17
2023-01-28T17:57:06.722Z,36.80
2023-01-28T17:59:30.209Z,37.57
2023-01-28T18:01:55.495Z,37.03
2023-01-28T18:04:18.830Z,35.93
2023-01-28T18:06:42.240Z,34.70
2023-01-28T18:09:07.091Z,36.37
2023-01-28T18:11:32.121Z,36.97
2023-01-28T18:13:55.353Z,37.17
2023-01-28T18:16:20.768Z,38.70
2023-01-28T18:18:46.234Z,37.13
2023-01-28T18:21:20.940Z,38.33
2023-01-28T18:23:44.860Z,36.83
2023-01-28T18:26:08.073Z,42.97
2023-01-28T18:28:31.811Z,38.73
2023-01-28T18:30:55.472Z,39.93
2023-01-28T18:33:18.909Z,39.40
2023-01-28T18:35:45.185Z,39.87
2023-01-28T18:38:08.424Z,39.20
2023-01-28T18:40:31.706Z,42.50
2023-01-28T18:42:55.052Z,40.60
2023-01-28T18:45:18.498Z,43.10
2023-01-28T18:47:41.735Z,43.43
2023-01-28T18:50:06.230Z,41.63
2023-01-28T18:52:30.841Z,43.57
2023-01-28T18:54:54.335Z,45.27
2023-01-28T18:57:17.562Z,44.20
2023-01-28T18:59:40.807Z,43.30
2023-01-28T19:02:04.042Z,42.73
2023-01-28T19:04:27.411Z,44.97
2023-01-28T19:06:50.838Z,43.83
2023-01-28T19:09:17.640Z,46.20
2023-01-28T19:11:41.794Z,46.00
2023-01-28T19:14:05.169Z,42.87
2023-01-28T19:16:28.713Z,42.20
2023-01-28T19:18:54.375Z,43.27
2023-01-28T19:21:17.734Z,40.93
2023-01-28T19:23:49.571Z,44.33
2023-01-28T19:26:20.810Z,43.87
2023-01-28T19:28:44.183Z,41.07
2023-01-28T19:31:07.478Z,38.77
2023-01-28T19:33:30.767Z,40.57
2023-01-28T19:35:57.938Z,38.93
2023-01-28T19:38:21.284Z,39.47
2023-01-28T19:40:44.471Z,41.70
2023-01-28T19:43:09.169Z,42.50
2023-01-28T19:45:32.421Z,41.17
2023-01-28T19:47:55.790Z,41.10
2023-01-28T19:50:19.253Z,42.80
2023-01-28T19:52:42.634Z,39.93
2023-01-28T19:55:07.573Z,40.40
2023-01-28T19:57:31.062Z,37.93
2023-01-28T19:59:55.759Z,37.43
2023-01-28T20:02:19.013Z,37.30
2023-01-28T20:04:54.882Z,39.30
2023-01-28T20:07:23.563Z,41.43
2023-01-28T20:09:47.048Z,42.60
2023-01-28T20:12:11.951Z,44.17
2023-01-28T20:14:35.155Z,43.03
2023-01-28T20:17:00.145Z,44.07
2023-01-28T20:19:23.481Z,43.93
2023-01-28T20:21:47.719Z,46.20
2023-01-28T20:24:13.821Z,44.43
2023-01-28T20:26:38.839Z,42.80
2023-01-28T20:29:03.039Z,45.67
2023-01-28T20:31:26.380Z,45.73
2023-01-28T20:33:51.465Z,45.70
2023-01-28T20:36:15.646Z,43.67
2023-01-28T20:38:40.306Z,46.50
2023-01-28T20:41:07.645Z,45.67
2023-01-28T20:43:30.854Z,43.10
2023-01-28T20:45:55.887Z,44.37
2023-01-28T20:48:19.241Z,44.50
2023-01-28T20:50:43.893Z,49.03
2023-01-28T20:53:07.257Z,46.00
2023-01-28T20:55:30.627Z,45.53
2023-01-28T20:57:54.241Z,45.57
2023-01-28T21:00:18.694Z,43.00
2023-01-28T21:02:44.240Z,42.70
2023-01-28T21:05:09.017Z,45.20
2023-01-28T21:07:33.761Z,46.73
2023-01-28T21:09:57.556Z,46.53
2023-01-28T21:12:20.814Z,48.73
2023-01-28T21:14:44.059Z,48.20
2023-01-28T21:17:07.737Z,44.47
2023-01-28T21:19:31.034Z,44.90
2023-01-28T21:21:54.374Z,46.67
2023-01-28T21:24:19.125Z,46.70
2023-01-28T21:26:42.368Z,46.40
2023-01-28T21:29:05.738Z,46.27
2023-01-28T21:31:29.077Z,43.83
2023-01-28T21:33:54.899Z,43.40
2023-01-28T21:36:19.189Z,45.97
2023-01-28T21:38:43.020Z,44.00
2023-01-28T21:41:08.660Z,42.80
2023-01-28T21:43:32.396Z,41.67
2023-01-28T21:45:59.410Z,42.13
2023-01-28T21:48:22.723Z,43.40
2023-01-28T21:50:59.895Z,41.13
2023-01-28T21:53:23.168Z,42.33
2023-01-28T21:55:49.053Z,42.53
2023-01-28T21:58:31.633Z,42.97
2023-01-28T22:00:55.025Z,43.97
2023-01-28T22:03:18.443Z,42.20
2023-01-28T22:05:41.761Z,46.30
2023-01-28T22:08:05.137Z,44.43
2023-01-28T22:10:28.425Z,43.27
2023-01-28T22:12:51.665Z,45.53
2023-01-28T22:15:16.403Z,44.23
2023-01-28T22:17:39.797Z,42.23
2023-01-28T22:20:03.288Z,43.93
2023-01-28T22:22:26.705Z,44.87
2023-01-28T22:24:49.889Z,44.27
2023-01-28T22:27:14.067Z,44.57
2023-01-28T22:29:37.483Z,46.00
2023-01-28T22:32:04.122Z,45.17
2023-01-28T22:34:28.429Z,50.03
2023-01-28T22:36:52.296Z,49.33
2023-01-28T22:39:17.499Z,49.77
2023-01-28T22:41:41.484Z,49.50
2023-01-28T22:44:04.851Z,49.30
2023-01-28T22:46:28.983Z,46.43
2023-01-28T22:48:53.778Z,45.87
2023-01-28T22:51:20.047Z,48.77
2023-01-28T22:53:43.644Z,47.27
2023-01-28T22:56:08.213Z,49.83
2023-01-28T22:58:32.123Z,49.87
2023-01-28T23:00:56.347Z,53.57
2023-01-28T23:03:19.936Z,49.43
2023-01-28T23:05:44.976Z,50.00
2023-01-28T23:08:11.327Z,54.23
2023-01-28T23:10:34.551Z,61.73
2023-01-28T23:12:58.258Z,65.80
2023-01-28T23:15:41.340Z,54.07
2023-01-28T23:18:22.455Z,46.77
2023-01-28T23:21:04.548Z,43.87
2023-01-28T23:23:45.346Z,45.10
2023-01-28T23:26:08.699Z,43.10
2023-01-28T23:28:32.018Z,42.60
2023-01-28T23:30:56.007Z,41.43
2023-01-28T23:33:19.451Z,40.53
2023-01-28T23:35:43.046Z,41.07
2023-01-28T23:38:07.755Z,42.53
2023-01-28T23:40:31.130Z,45.67
2023-01-28T23:42:56.432Z,44.57
2023-01-28T23:45:19.907Z,44.70
2023-01-28T23:47:43.247Z,44.63
2023-01-28T23:50:07.203Z,42.70
2023-01-28T23:52:30.600Z,43.57
2023-01-28T23:54:55.653Z,40.33
2023-01-28T23:57:19.100Z,40.40
2023-01-28T23:59:42.695Z,41.60
